createdAt,value
2024-02-19T00:00:27.527Z,101106.47
2024-02-19T00:03:04.105Z,101104.72
2024-02-19T00:05:37.090Z,101105.59
2024-02-19T00:08:10.062Z,101093.28
2024-02-19T00:10:43.159Z,101085.38
2024-02-19T00:13:16.287Z,101084.50
2024-02-19T00:15:51.588Z,101091.53
2024-02-19T00:18:24.666Z,101078.38
2024-02-19T00:20:57.596Z,101076.59
2024-02-19T00:23:30.956Z,101070.47
2024-02-19T00:26:04.044Z,101059.03
2024-02-19T00:28:36.929Z,101054.66
2024-02-19T00:31:14.432Z,101055.53
2024-02-19T00:33:48.892Z,101054.66
2024-02-19T00:36:22.122Z,101051.13
2024-02-19T00:38:55.429Z,101054.66
2024-02-19T00:41:28.534Z,101048.47
2024-02-19T00:44:01.454Z,101041.47
2024-02-19T00:46:35.700Z,101040.59
2024-02-19T00:49:08.653Z,101037.06
2024-02-19T00:51:43.549Z,101030.06
2024-02-19T00:54:16.484Z,101022.16
2024-02-19T00:56:49.624Z,101016.88
2024-02-19T00:59:22.505Z,101006.31
2024-02-19T01:01:56.921Z,100998.41
2024-02-19T01:04:30.007Z,100999.28
2024-02-19T01:07:03.004Z,101006.31
2024-02-19T01:09:35.932Z,100999.28
2024-02-19T01:12:09.504Z,101001.06
2024-02-19T01:14:42.482Z,100992.28
2024-02-19T01:17:16.725Z,100981.75
2024-02-19T01:19:49.648Z,100970.31
2024-02-19T01:22:22.551Z,100978.19
2024-02-19T01:24:55.638Z,100987.00
2024-02-19T01:27:29.871Z,100981.72
2024-02-19T01:30:02.800Z,100987.84
2024-02-19T01:32:38.316Z,100975.59
2024-02-19T01:35:13.023Z,100971.19
2024-02-19T01:37:46.434Z,100960.66
2024-02-19T01:40:19.421Z,100949.25
2024-02-19T01:43:03.239Z,100946.63
2024-02-19T01:45:36.234Z,100944.84
2024-02-19T01:48:11.501Z,100943.97
2024-02-19T01:50:46.330Z,100926.41
2024-02-19T01:53:19.360Z,100914.13
2024-02-19T01:55:52.447Z,100906.22
2024-02-19T01:58:25.471Z,100907.09
2024-02-19T02:01:00.214Z,100903.56
2024-02-19T02:03:36.309Z,100900.06
2024-02-19T02:06:09.217Z,100893.06
2024-02-19T02:08:42.118Z,100884.28
2024-02-19T02:11:15.028Z,100874.63
2024-02-19T02:13:47.956Z,100864.06
2024-02-19T02:16:26.407Z,100850.03
2024-02-19T02:19:00.785Z,100857.06
2024-02-19T02:21:35.012Z,100872.88
2024-02-19T02:24:08.040Z,100877.28
2024-02-19T02:26:42.466Z,100866.75
2024-02-19T02:29:15.348Z,100868.47
2024-02-19T02:31:48.251Z,100870.22
2024-02-19T02:34:21.206Z,100848.31
2024-02-19T02:36:54.166Z,100853.56
2024-02-19T02:39:27.125Z,100856.22
2024-02-19T02:42:01.356Z,100834.25
2024-02-19T02:44:34.266Z,100837.78
2024-02-19T02:47:07.317Z,100834.25
2024-02-19T02:49:40.363Z,100833.38
2024-02-19T02:52:13.457Z,100823.72
2024-02-19T02:54:46.437Z,100814.94
2024-02-19T02:57:20.705Z,100808.81
2024-02-19T02:59:53.741Z,100804.41
2024-02-19T03:02:26.695Z,100802.66
2024-02-19T03:04:59.581Z,100797.38
2024-02-19T03:07:32.573Z,100786.84
2024-02-19T03:10:06.295Z,100768.44
2024-02-19T03:12:41.109Z,100760.53
2024-02-19T03:15:14.105Z,100751.78
2024-02-19T03:17:47.077Z,100755.28
2024-02-19T03:20:20.845Z,100736.88
2024-02-19T03:22:54.366Z,100757.03
2024-02-19T03:25:27.328Z,100747.41
2024-02-19T03:28:02.052Z,100755.31
2024-02-19T03:30:35.504Z,100735.13
2024-02-19T03:33:08.638Z,100724.59
2024-02-19T03:35:41.576Z,100730.72
2024-02-19T03:38:14.529Z,100735.13
2024-02-19T03:40:47.449Z,100733.34
2024-02-19T03:43:21.810Z,100728.06
2024-02-19T03:45:56.861Z,100735.09
2024-02-19T03:48:30.268Z,100728.06
2024-02-19T03:51:03.215Z,100721.94
2024-02-19T03:53:36.126Z,100727.22
2024-02-19T03:56:09.216Z,100714.91
2024-02-19T03:58:43.514Z,100713.16
2024-02-19T04:01:16.541Z,100705.25
2024-02-19T04:03:49.728Z,100686.81
2024-02-19T04:06:22.676Z,100682.44
2024-02-19T04:08:55.558Z,100654.34
2024-02-19T04:11:28.723Z,100649.94
2024-02-19T04:14:03.010Z,100679.78
2024-02-19T04:16:35.912Z,100678.91
2024-02-19T04:19:09.044Z,100661.34
2024-02-19T04:21:46.209Z,100659.59
2024-02-19T04:24:19.236Z,100661.34
2024-02-19T04:26:52.109Z,100660.44
2024-02-19T04:29:26.483Z,100647.28
2024-02-19T04:31:59.727Z,100634.09
2024-02-19T04:34:36.518Z,100635.88
2024-02-19T04:37:11.370Z,100640.25
2024-02-19T04:39:44.416Z,100639.38
2024-02-19T04:42:17.452Z,100630.59
2024-02-19T04:44:51.703Z,100623.56
2024-02-19T04:47:24.653Z,100624.44
2024-02-19T04:49:57.728Z,100620.94
2024-02-19T04:52:30.721Z,100615.66
2024-02-19T04:55:04.680Z,100612.13
2024-02-19T04:57:37.783Z,100606.91
2024-02-19T05:00:13.591Z,100607.78
2024-02-19T05:02:46.651Z,100595.47
2024-02-19T05:05:19.650Z,100606.91
2024-02-19T05:07:52.571Z,100591.13
2024-02-19T05:10:25.513Z,100587.56
2024-02-19T05:12:58.492Z,100589.34
2024-02-19T05:15:32.765Z,100584.06
2024-02-19T05:18:06.319Z,100581.47
2024-02-19T05:20:40.342Z,100568.28
2024-02-19T05:23:13.055Z,100569.97
2024-02-19T05:25:45.979Z,100574.44
2024-02-19T05:28:19.059Z,100570.06
2024-02-19T05:30:53.854Z,100558.66
2024-02-19T05:33:26.843Z,100559.56
2024-02-19T05:35:59.694Z,100556.94
2024-02-19T05:38:32.785Z,100554.31
2024-02-19T05:41:06.044Z,100555.19
2024-02-19T05:43:38.966Z,100547.31
2024-02-19T05:46:13.308Z,100544.69
2024-02-19T05:48:46.426Z,100539.44
2024-02-19T05:51:19.385Z,100528.03
2024-02-19T05:53:52.236Z,100522.78
2024-02-19T05:56:26.213Z,100516.66
2024-02-19T05:58:58.886Z,100519.22
2024-02-19T06:01:33.264Z,100512.25
2024-02-19T06:04:06.250Z,100510.47
2024-02-19T06:06:40.555Z,100503.47
2024-02-19T06:09:13.467Z,100506.97
2024-02-19T06:11:46.856Z,100502.56
2024-02-19T06:14:19.758Z,100515.72
2024-02-19T06:16:54.052Z,100502.56
2024-02-19T06:19:27.166Z,100495.53
2024-02-19T06:22:00.254Z,100491.13
2024-02-19T06:24:33.389Z,100488.50
2024-02-19T06:27:07.871Z,100484.06
2024-02-19T06:29:40.892Z,100484.94
2024-02-19T06:32:15.213Z,100481.41
2024-02-19T06:34:48.224Z,100493.69
2024-02-19T06:37:21.395Z,100477.00
2024-02-19T06:39:54.837Z,100474.34
2024-02-19T06:42:27.844Z,100484.81
2024-02-19T06:45:01.011Z,100476.88
2024-02-19T06:47:35.344Z,100479.50
2024-02-19T06:50:08.799Z,100471.56
2024-02-19T06:52:46.035Z,100470.63
2024-02-19T06:55:19.452Z,100467.94
2024-02-19T06:57:52.438Z,100464.41
2024-02-19T07:00:25.388Z,100469.63
2024-02-19T07:02:59.609Z,100466.09
2024-02-19T07:05:32.739Z,100466.91
2024-02-19T07:08:06.421Z,100466.00
2024-02-19T07:10:39.777Z,100467.75
2024-02-19T07:13:12.800Z,100461.53
2024-02-19T07:15:45.752Z,100457.13
2024-02-19T07:18:20.196Z,100465.91
2024-02-19T07:20:53.201Z,100468.53
2024-02-19T07:23:26.158Z,100465.88
2024-02-19T07:25:59.034Z,100462.34
2024-02-19T07:28:31.998Z,100471.09
2024-02-19T07:31:05.334Z,100457.91
2024-02-19T07:33:39.719Z,100453.50
2024-02-19T07:36:12.686Z,100455.22
2024-02-19T07:38:45.581Z,100455.22
2024-02-19T07:41:18.874Z,100443.78
2024-02-19T07:43:52.258Z,100434.97
2024-02-19T07:46:25.297Z,100438.44
2024-02-19T07:48:59.887Z,100439.28
2024-02-19T07:51:32.852Z,100432.19
2024-02-19T07:54:05.878Z,100437.44
2024-02-19T07:56:38.800Z,100436.47
2024-02-19T07:59:11.986Z,100432.00
2024-02-19T08:01:45.072Z,100446.94
2024-02-19T08:04:19.822Z,100431.97
2024-02-19T08:06:55.755Z,100424.91
2024-02-19T08:09:29.368Z,100431.06
2024-02-19T08:12:02.477Z,100412.59
2024-02-19T08:14:36.669Z,100426.63
2024-02-19T08:17:10.102Z,100409.03
2024-02-19T08:19:44.355Z,100402.91
2024-02-19T08:22:17.267Z,100406.38
2024-02-19T08:24:50.417Z,100401.94
2024-02-19T08:27:23.368Z,100391.31
2024-02-19T08:29:56.313Z,100398.34
2024-02-19T08:32:29.787Z,100394.81
2024-02-19T08:35:04.338Z,100393.03
2024-02-19T08:37:40.488Z,100389.50
2024-02-19T08:40:13.531Z,100389.47
2024-02-19T08:42:46.678Z,100379.78
2024-02-19T08:45:22.762Z,100374.50
2024-02-19T08:47:57.314Z,100382.44
2024-02-19T08:50:31.708Z,100390.38
2024-02-19T08:53:04.893Z,100371.97
2024-02-19T08:55:37.821Z,100377.25
2024-02-19T08:58:10.893Z,100373.78
2024-02-19T09:00:43.926Z,100379.06
2024-02-19T09:03:17.009Z,100366.75
2024-02-19T09:05:51.404Z,100358.81
2024-02-19T09:08:24.414Z,100356.16
2024-02-19T09:10:57.507Z,100351.72
2024-02-19T09:13:30.469Z,100347.28
2024-02-19T09:16:03.628Z,100338.41
2024-02-19T09:18:36.905Z,100345.44
2024-02-19T09:21:11.131Z,100344.50
2024-02-19T09:23:43.996Z,100351.53
2024-02-19T09:26:17.201Z,100349.75
2024-02-19T09:28:50.116Z,100336.53
2024-02-19T09:31:25.031Z,100337.41
2024-02-19T09:33:58.186Z,100342.59
2024-02-19T09:36:32.449Z,100336.38
2024-02-19T09:39:05.357Z,100333.63
2024-02-19T09:41:38.468Z,100322.09
2024-02-19T09:44:11.655Z,100328.13
2024-02-19T09:46:47.198Z,100327.13
2024-02-19T09:49:23.061Z,100327.06
2024-02-19T09:51:59.357Z,100320.84
2024-02-19T09:54:32.390Z,100317.19
2024-02-19T09:57:10.462Z,100318.97
2024-02-19T09:59:46.168Z,100323.28
2024-02-19T10:02:20.907Z,100326.84
2024-02-19T10:04:54.013Z,100318.94
2024-02-19T10:07:28.512Z,100311.91
2024-02-19T10:10:01.511Z,100317.19
2024-02-19T10:12:35.095Z,100310.16
2024-02-19T10:15:09.060Z,100304.81
2024-02-19T10:17:41.873Z,100305.59
2024-02-19T10:20:14.899Z,100289.03
2024-02-19T10:22:49.342Z,100288.16
2024-02-19T10:25:22.263Z,100295.19
2024-02-19T10:27:56.414Z,100279.34
2024-02-19T10:30:29.757Z,100272.28
2024-02-19T10:33:02.925Z,100289.81
2024-02-19T10:35:35.904Z,100288.81
2024-02-19T10:38:12.776Z,100284.25
2024-02-19T10:40:45.985Z,100276.19
2024-02-19T10:43:20.117Z,100259.34
2024-02-19T10:45:53.952Z,100262.75
2024-02-19T10:48:27.582Z,100261.78
2024-02-19T10:51:04.956Z,100255.53
2024-02-19T10:53:39.970Z,100250.22
2024-02-19T10:56:18.045Z,100238.72
2024-02-19T10:58:54.790Z,100247.47
2024-02-19T11:01:41.958Z,100248.31
2024-02-19T11:04:20.866Z,100234.22
2024-02-19T11:06:56.036Z,100221.84
2024-02-19T11:09:35.472Z,100221.72
2024-02-19T11:12:15.457Z,100220.69
2024-02-19T11:14:52.179Z,100216.22
2024-02-19T11:17:25.415Z,100211.72
2024-02-19T11:19:58.384Z,100218.69
2024-02-19T11:22:31.891Z,100210.59
2024-02-19T11:25:06.873Z,100213.97
2024-02-19T11:27:41.142Z,100208.47
2024-02-19T11:30:15.458Z,100195.06
2024-02-19T11:32:48.939Z,100191.34
2024-02-19T11:35:22.031Z,100193.78
2024-02-19T11:37:55.017Z,100188.34
2024-02-19T11:40:32.629Z,100181.97
2024-02-19T11:43:06.749Z,100190.63
2024-02-19T11:45:40.216Z,100173.78
2024-02-19T11:48:13.924Z,100178.16
2024-02-19T11:50:47.234Z,100173.63
2024-02-19T11:53:22.875Z,100174.41
2024-02-19T11:56:01.695Z,100166.31
2024-02-19T11:58:34.697Z,100155.56
2024-02-19T12:01:07.796Z,100156.25
2024-02-19T12:03:43.147Z,100152.63
2024-02-19T12:06:16.082Z,100157.03
2024-02-19T12:08:49.005Z,100148.22
2024-02-19T12:11:23.854Z,100145.66
2024-02-19T12:13:56.937Z,100137.72
2024-02-19T12:16:30.478Z,100138.56
2024-02-19T12:19:03.608Z,100134.13
2024-02-19T12:21:36.967Z,100132.34
2024-02-19T12:24:12.062Z,100127.03
2024-02-19T12:26:46.596Z,100121.78
2024-02-19T12:29:19.479Z,100112.03
2024-02-19T12:31:52.379Z,100133.22
2024-02-19T12:34:25.522Z,100106.69
2024-02-19T12:36:58.680Z,100109.31
2024-02-19T12:39:31.956Z,100093.31
2024-02-19T12:42:09.523Z,100085.34
2024-02-19T12:44:43.925Z,100085.25
2024-02-19T12:47:16.876Z,100086.06
2024-02-19T12:49:49.983Z,100079.81
2024-02-19T12:52:26.639Z,100085.03
2024-02-19T12:54:59.719Z,100076.19
2024-02-19T12:57:34.100Z,100086.63
2024-02-19T13:00:09.799Z,100072.47
2024-02-19T13:02:42.825Z,100072.38
2024-02-19T13:05:16.064Z,100074.03
2024-02-19T13:07:49.690Z,100074.81
2024-02-19T13:10:22.726Z,100067.66
2024-02-19T13:12:57.040Z,100052.56
2024-02-19T13:15:30.976Z,100053.31
2024-02-19T13:18:03.788Z,100055.47
2024-02-19T13:20:37.229Z,100051.25
2024-02-19T13:23:12.866Z,100052.91
2024-02-19T13:25:45.881Z,100057.31
2024-02-19T13:28:20.436Z,100047.56
2024-02-19T13:30:53.354Z,100051.91
2024-02-19T13:33:26.798Z,100036.84
2024-02-19T13:36:00.412Z,100035.81
2024-02-19T13:38:33.465Z,100032.13
2024-02-19T13:41:07.805Z,100034.63
2024-02-19T13:43:43.473Z,100022.16
2024-02-19T13:46:20.817Z,100024.66
2024-02-19T13:49:01.646Z,100017.41
2024-02-19T13:51:34.835Z,100031.38
2024-02-19T13:54:08.102Z,100032.03
2024-02-19T13:56:41.430Z,100018.66
2024-02-19T13:59:15.783Z,100012.41
2024-02-19T14:01:48.788Z,100009.66
2024-02-19T14:04:21.787Z,100021.00
2024-02-19T14:06:54.856Z,100016.47
2024-02-19T14:09:28.227Z,100008.38
2024-02-19T14:12:01.070Z,100005.69
2024-02-19T14:14:35.347Z,100002.97
2024-02-19T14:17:11.834Z,100001.94
2024-02-19T14:19:46.154Z,99994.75
2024-02-19T14:22:19.184Z,100003.47
2024-02-19T14:24:52.779Z,99988.34
2024-02-19T14:27:26.195Z,99999.75
2024-02-19T14:30:02.178Z,99994.28
2024-02-19T14:32:35.212Z,99986.22
2024-02-19T14:35:10.023Z,99993.22
2024-02-19T14:37:47.566Z,99993.09
2024-02-19T14:40:20.978Z,99998.31
2024-02-19T14:42:54.267Z,99992.94
2024-02-19T14:45:28.863Z,99993.69
2024-02-19T14:48:02.301Z,99993.56
2024-02-19T14:50:35.672Z,99990.81
2024-02-19T14:53:09.012Z,99987.13
2024-02-19T14:55:41.925Z,99982.69
2024-02-19T14:58:15.071Z,99987.06
2024-02-19T15:00:50.481Z,99982.56
2024-02-19T15:03:23.808Z,99985.97
2024-02-19T15:05:56.805Z,99988.56
2024-02-19T15:08:29.877Z,100000.00
2024-02-19T15:11:03.876Z,99994.69
2024-02-19T15:13:37.326Z,100007.00
2024-02-19T15:16:12.279Z,100011.34
2024-02-19T15:18:45.384Z,100013.84
2024-02-19T15:21:18.473Z,100007.50
2024-02-19T15:23:51.502Z,100009.19
2024-02-19T15:26:25.313Z,100012.66
2024-02-19T15:28:59.068Z,100008.13
2024-02-19T15:31:36.112Z,100011.63
2024-02-19T15:34:10.947Z,100010.78
2024-02-19T15:36:44.104Z,100017.91
2024-02-19T15:39:20.361Z,100017.16
2024-02-19T15:41:53.658Z,100018.09
2024-02-19T15:44:26.523Z,100021.66
2024-02-19T15:47:00.831Z,100015.66
2024-02-19T15:49:34.187Z,100021.81
2024-02-19T15:52:08.107Z,100019.31
2024-02-19T15:54:42.696Z,100017.22
2024-02-19T15:57:15.716Z,100022.94
2024-02-19T15:59:48.672Z,100029.28
2024-02-19T16:02:23.075Z,100024.06
2024-02-19T16:04:56.232Z,100026.03
2024-02-19T16:07:29.560Z,100027.88
2024-02-19T16:10:02.940Z,100031.44
2024-02-19T16:12:36.008Z,100032.41
2024-02-19T16:15:09.637Z,100026.19
2024-02-19T16:17:44.206Z,100031.56
2024-02-19T16:20:17.189Z,100030.66
2024-02-19T16:22:52.057Z,100031.56
2024-02-19T16:25:25.098Z,100041.38
2024-02-19T16:27:58.715Z,100041.38
2024-02-19T16:30:31.804Z,100044.94
2024-02-19T16:33:06.531Z,100041.44
2024-02-19T16:35:39.529Z,100045.91
2024-02-19T16:38:12.822Z,100050.41
2024-02-19T16:40:46.951Z,100047.91
2024-02-19T16:43:19.878Z,100050.66
2024-02-19T16:45:53.494Z,100054.28
2024-02-19T16:48:28.065Z,100055.19
2024-02-19T16:51:01.085Z,100060.56
2024-02-19T16:53:35.102Z,100056.19
2024-02-19T16:56:10.735Z,100064.16
2024-02-19T16:58:43.737Z,100060.63
2024-02-19T17:01:18.686Z,100059.66
2024-02-19T17:03:53.614Z,100057.00
2024-02-19T17:06:26.632Z,100061.41
2024-02-19T17:09:04.887Z,100069.31
2024-02-19T17:11:38.032Z,100060.41
2024-02-19T17:14:11.228Z,100070.97
2024-02-19T17:16:50.352Z,100070.97
2024-02-19T17:19:25.488Z,100070.06
2024-02-19T17:21:58.585Z,100076.22
2024-02-19T17:24:33.594Z,100076.22
2024-02-19T17:27:06.729Z,100071.75
2024-02-19T17:29:41.824Z,100069.94
2024-02-19T17:32:15.400Z,100068.22
2024-02-19T17:34:52.511Z,100080.63
2024-02-19T17:37:28.238Z,100081.50
2024-02-19T17:40:01.410Z,100089.47
2024-02-19T17:42:36.034Z,100081.50
2024-02-19T17:45:10.617Z,100081.53
2024-02-19T17:47:43.396Z,100083.88
2024-02-19T17:50:18.781Z,100088.66
2024-02-19T17:52:51.744Z,100091.31
2024-02-19T17:55:24.880Z,100094.91
2024-02-19T17:57:57.982Z,100097.69
2024-02-19T18:00:31.007Z,100090.75
2024-02-19T18:03:04.059Z,100105.00
2024-02-19T18:05:38.638Z,100108.75
2024-02-19T18:08:11.671Z,100109.81
2024-02-19T18:10:44.610Z,100117.00
2024-02-19T18:13:19.580Z,100118.91
2024-02-19T18:15:54.021Z,100120.78
2024-02-19T18:18:27.952Z,100120.97
2024-02-19T18:21:03.215Z,100124.66
2024-02-19T18:23:36.103Z,100135.47
2024-02-19T18:26:09.196Z,100133.75
2024-02-19T18:28:42.202Z,100131.34
2024-02-19T18:31:15.504Z,100126.97
2024-02-19T18:33:48.499Z,100132.34
2024-02-19T18:36:22.728Z,100141.16
2024-02-19T18:38:55.721Z,100131.47
2024-02-19T18:41:28.918Z,100137.69
2024-02-19T18:44:06.161Z,100138.59
2024-02-19T18:46:39.163Z,100143.09
2024-02-19T18:49:12.185Z,100149.38
2024-02-19T18:51:49.042Z,100143.22
2024-02-19T18:54:23.603Z,100156.53
2024-02-19T18:56:56.670Z,100150.28
2024-02-19T18:59:29.621Z,100152.97
2024-02-19T19:02:04.967Z,100151.13
2024-02-19T19:04:38.131Z,100163.50
2024-02-19T19:07:12.605Z,100165.22
2024-02-19T19:09:46.267Z,100166.09
2024-02-19T19:12:19.337Z,100165.16
2024-02-19T19:14:52.824Z,100166.00
2024-02-19T19:17:25.805Z,100168.72
2024-02-19T19:19:58.935Z,100172.28
2024-02-19T19:22:33.384Z,100175.81
2024-02-19T19:25:07.270Z,100174.91
2024-02-19T19:27:40.017Z,100181.66
2024-02-19T19:30:13.310Z,100181.19
2024-02-19T19:32:46.404Z,100185.72
2024-02-19T19:35:21.338Z,100179.69
2024-02-19T19:37:55.729Z,100185.13
2024-02-19T19:40:28.689Z,100186.06
2024-02-19T19:43:01.698Z,100184.34
2024-02-19T19:45:37.360Z,100192.41
2024-02-19T19:48:10.376Z,100188.88
2024-02-19T19:50:43.345Z,100185.38
2024-02-19T19:53:20.930Z,100187.13
2024-02-19T19:55:55.089Z,100192.41
2024-02-19T19:58:32.313Z,100183.59
2024-02-19T20:01:09.666Z,100198.59
2024-02-19T20:03:49.632Z,100200.34
2024-02-19T20:06:22.903Z,100199.44
2024-02-19T20:08:57.242Z,100201.16
2024-02-19T20:11:30.321Z,100205.56
2024-02-19T20:14:03.346Z,100208.19
2024-02-19T20:16:41.930Z,100210.78
2024-02-19T20:19:15.105Z,100211.66
2024-02-19T20:21:48.051Z,100221.34
2024-02-19T20:24:25.495Z,100217.75
2024-02-19T20:27:02.020Z,100227.47
2024-02-19T20:29:35.312Z,100225.69
2024-02-19T20:32:09.552Z,100231.88
2024-02-19T20:34:45.472Z,100237.22
2024-02-19T20:37:19.364Z,100233.63
2024-02-19T20:39:53.766Z,100230.97
2024-02-19T20:42:27.167Z,100246.91
2024-02-19T20:45:00.107Z,100246.84
2024-02-19T20:47:37.440Z,100253.94
2024-02-19T20:50:13.022Z,100247.78
2024-02-19T20:52:46.586Z,100259.25
2024-02-19T20:55:22.290Z,100244.19
2024-02-19T20:58:03.692Z,100270.63
2024-02-19T21:00:36.776Z,100253.03
2024-02-19T21:03:09.720Z,100258.41
2024-02-19T21:05:48.583Z,100262.81
2024-02-19T21:08:21.665Z,100265.53
2024-02-19T21:10:57.059Z,100268.28
2024-02-19T21:13:30.088Z,100263.09
2024-02-19T21:16:04.199Z,100257.00
2024-02-19T21:18:46.455Z,100259.69
2024-02-19T21:21:29.810Z,100269.34
2024-02-19T21:24:08.117Z,100259.59
2024-02-19T21:26:42.854Z,100267.56
2024-02-19T21:29:15.758Z,100274.69
2024-02-19T21:31:48.766Z,100272.03
2024-02-19T21:34:21.705Z,100272.91
2024-02-19T21:36:57.849Z,100276.44
2024-02-19T21:39:30.966Z,100276.47
2024-02-19T21:42:05.811Z,100269.44
2024-02-19T21:44:38.726Z,100277.38
2024-02-19T21:47:13.609Z,100279.19
2024-02-19T21:49:48.776Z,100280.94
2024-02-19T21:52:21.955Z,100272.16
2024-02-19T21:54:54.857Z,100274.81
2024-02-19T21:57:29.088Z,100273.06
2024-02-19T22:00:02.084Z,100272.25
2024-02-19T22:02:37.535Z,100271.41
2024-02-19T22:05:10.901Z,100276.75
2024-02-19T22:07:44.235Z,100280.22
2024-02-19T22:10:17.556Z,100282.03
2024-02-19T22:12:51.933Z,100280.25
2024-02-19T22:15:24.977Z,100281.09
2024-02-19T22:17:57.935Z,100278.41
2024-02-19T22:20:32.343Z,100286.34
2024-02-19T22:23:05.577Z,100282.84
2024-02-19T22:25:38.663Z,100283.72
2024-02-19T22:28:13.003Z,100279.31
2024-02-19T22:30:45.940Z,100278.41
2024-02-19T22:33:19.061Z,100277.53
2024-02-19T22:35:51.922Z,100289.84
2024-02-19T22:38:31.459Z,100280.13
2024-02-19T22:41:04.454Z,100278.34
2024-02-19T22:43:38.801Z,100291.56
2024-02-19T22:46:11.687Z,100287.13
2024-02-19T22:48:44.651Z,100284.47
2024-02-19T22:51:17.625Z,100295.97
2024-02-19T22:53:50.792Z,100283.59
2024-02-19T22:56:23.682Z,100297.81
2024-02-19T22:59:06.928Z,100296.06
2024-02-19T23:01:48.672Z,100299.66
2024-02-19T23:04:22.118Z,100304.16
2024-02-19T23:06:55.274Z,100296.25
2024-02-19T23:09:28.357Z,100306.06
2024-02-19T23:12:01.269Z,100298.19
2024-02-19T23:14:35.585Z,100302.72
2024-02-19T23:17:08.575Z,100302.72
2024-02-19T23:19:41.610Z,100299.16
2024-02-19T23:22:14.826Z,100299.25
2024-02-19T23:24:47.861Z,100293.09
2024-02-19T23:27:20.754Z,100291.34
2024-02-19T23:29:55.212Z,100286.03
2024-02-19T23:32:28.467Z,100284.25
2024-02-19T23:35:01.475Z,100277.06
2024-02-19T23:37:35.189Z,100280.53
2024-02-19T23:40:17.416Z,100281.34
2024-02-19T23:42:50.547Z,100275.13
2024-02-19T23:45:24.842Z,100271.56
2024-02-19T23:47:57.874Z,100282.09
2024-02-19T23:50:30.891Z,100272.25
2024-02-19T23:53:04.150Z,100276.63
2024-02-19T23:55:37.146Z,100274.75
2024-02-19T23:58:10.148Z,100281.75
